Time;durP1;ratioP1;P1;durP2;ratioP2;P2;SDS_P1;SDS_P2;PMS_P1;PMS_P2;Temp;Humidity;BMP_temperature;BMP_pressure;BME280_temperature;BME280_humidity;BME280_pressure;Samples;Min_cycle;Max_cycle;Signal;HPM_P1;HPM_P2
2022/01/16 00:04:11;;;;;;;0.00;0.00;;;2.20;99.90;;;;;;5040918;28;20099;-69
2022/01/16 00:06:42;;;;;;;0.57;0.47;;;2.20;99.90;;;;;;5042157;28;20047;-69
2022/01/16 00:09:08;;;;;;;0.10;0.10;;;2.20;99.90;;;;;;5041612;28;20155;-70
2022/01/16 00:11:35;;;;;;;1.02;1.00;;;2.10;99.90;;;;;;5041087;28;20056;-69
2022/01/16 00:14:02;;;;;;;0.13;0.08;;;2.10;99.90;;;;;;5040375;28;20057;-69
2022/01/16 00:16:28;;;;;;;0.75;0.70;;;1.90;99.90;;;;;;5023606;28;20037;-69
2022/01/16 00:18:54;;;;;;;0.03;0.03;;;2.10;99.90;;;;;;5040668;28;20059;-69
2022/01/16 00:21:41;;;;;;;0.20;0.20;;;2.10;99.90;;;;;;5041525;28;20051;-69
2022/01/16 00:24:08;;;;;;;0.00;0.00;;;2.00;99.90;;;;;;5041511;28;20106;-69
2022/01/16 00:26:35;;;;;;;0.00;0.00;;;2.00;99.90;;;;;;5040521;28;20084;-69
2022/01/16 00:29:01;;;;;;;0.00;0.00;;;2.00;99.90;;;;;;5033927;28;20048;-70
2022/01/16 00:31:27;;;;;;;0.00;0.00;;;1.90;99.90;;;;;;5021407;28;20775;-69
2022/01/16 00:33:53;;;;;;;0.10;0.10;;;1.90;99.90;;;;;;5020453;28;20049;-69
2022/01/16 00:36:20;;;;;;;0.10;0.10;;;1.90;99.90;;;;;;5021219;28;20068;-70
2022/01/16 00:38:52;;;;;;;1.17;1.08;;;1.90;99.90;;;;;;5020928;28;20041;-69
2022/01/16 00:41:20;;;;;;;0.00;0.00;;;1.90;99.90;;;;;;5021061;28;20049;-69
2022/01/16 00:43:47;;;;;;;0.00;0.00;;;2.50;99.90;;;;;;5002191;28;20049;-69
2022/01/16 00:46:13;;;;;;;0.20;0.20;;;1.80;99.90;;;;;;5020891;28;20048;-69
2022/01/16 00:48:39;;;;;;;0.20;0.20;;;1.80;99.90;;;;;;5021296;28;20050;-70
2022/01/16 00:51:05;;;;;;;0.00;0.00;;;1.70;99.90;;;;;;5020474;28;20091;-69
2022/01/16 00:53:31;;;;;;;0.65;0.65;;;1.70;99.90;;;;;;5020597;28;20049;-68
2022/01/16 00:55:57;;;;;;;0.47;0.40;;;1.60;99.90;;;;;;5020455;28;20041;-69
2022/01/16 00:58:23;;;;;;;0.43;0.43;;;1.60;99.90;;;;;;5019668;28;20136;-69
2022/01/16 01:00:49;;;;;;;0.00;0.00;;;1.60;99.90;;;;;;5020197;28;20148;-69
2022/01/16 01:03:16;;;;;;;0.00;0.00;;;3.20;99.90;;;;;;5020777;28;20072;-69
2022/01/16 01:05:42;;;;;;;0.00;0.00;;;1.50;99.90;;;;;;5020381;28;20057;-69
2022/01/16 01:08:08;;;;;;;0.10;0.10;;;2.20;99.90;;;;;;5020893;28;20056;-69
2022/01/16 01:10:38;;;;;;;0.05;0.05;;;1.40;99.90;;;;;;5019714;28;20049;-69
2022/01/16 01:13:21;;;;;;;0.43;0.40;;;1.40;99.90;;;;;;5001636;28;20126;-69
2022/01/16 01:15:50;;;;;;;1.48;0.47;;;1.40;99.90;;;;;;5002348;28;20058;-69
2022/01/16 01:18:18;;;;;;;0.30;0.30;;;1.60;99.90;;;;;;5020700;28;20124;-68
2022/01/16 01:20:48;;;;;;;0.00;0.00;;;1.40;99.90;;;;;;5019786;28;20049;-69
2022/01/16 01:23:14;;;;;;;0.00;0.00;;;1.40;99.90;;;;;;5020521;28;20447;-69
2022/01/16 01:25:42;;;;;;;0.43;0.38;;;1.40;99.90;;;;;;5020206;28;20060;-69
2022/01/16 01:28:09;;;;;;;0.00;0.00;;;1.30;99.90;;;;;;5023727;28;20064;-69
2022/01/16 01:30:36;;;;;;;0.00;0.00;;;1.30;99.90;;;;;;5027015;28;20097;-70
2022/01/16 01:33:02;;;;;;;0.20;0.20;;;1.20;99.90;;;;;;5001801;28;20091;-69
2022/01/16 01:35:28;;;;;;;0.00;0.00;;;1.20;99.90;;;;;;5019860;28;20038;-69
2022/01/16 01:37:54;;;;;;;0.00;0.00;;;1.20;99.90;;;;;;5019838;28;20081;-69
2022/01/16 01:40:25;;;;;;;0.03;0.03;;;1.20;99.90;;;;;;5002686;28;20433;-69
2022/01/16 01:51:24;;;;;;;0.00;0.00;;;1.10;99.90;;;;;;5018978;28;20559;-69
2022/01/16 01:53:51;;;;;;;0.35;0.35;;;1.10;99.90;;;;;;5002141;28;20124;-69
2022/01/16 01:56:23;;;;;;;0.25;0.25;;;1.00;99.90;;;;;;5019717;28;20049;-68
2022/01/16 01:58:50;;;;;;;0.00;0.00;;;1.00;99.90;;;;;;5018662;28;20045;-68
2022/01/16 02:01:17;;;;;;;0.00;0.00;;;1.80;99.90;;;;;;5019437;28;20037;-69
2022/01/16 02:03:43;;;;;;;0.00;0.00;;;1.00;99.90;;;;;;5019784;28;20092;-68
2022/01/16 02:06:23;;;;;;;0.38;0.38;;;0.90;99.90;;;;;;5019370;28;20535;-68
2022/01/16 02:08:52;;;;;;;0.00;0.00;;;1.00;99.90;;;;;;5001490;28;20538;-69
2022/01/16 02:11:23;;;;;;;0.00;0.00;;;0.00;99.90;;;;;;5019671;28;20443;-69
2022/01/16 02:14:05;;;;;;;0.00;0.00;;;1.00;99.90;;;;;;5018765;28;20049;-69
2022/01/16 02:28:13;;;;;;;0.00;0.00;;;0.90;99.90;;;;;;5021311;28;20054;-69
2022/01/16 02:35:50;;;;;;;0.00;0.00;;;1.40;99.90;;;;;;5019013;28;20056;-69
2022/01/16 02:38:16;;;;;;;0.00;0.00;;;1.00;99.90;;;;;;5019757;28;20096;-69
2022/01/16 02:40:54;;;;;;;0.00;0.00;;;1.00;99.90;;;;;;5018982;28;20061;-69
2022/01/16 02:43:29;;;;;;;0.00;0.00;;;1.00;99.90;;;;;;5018612;28;20056;-68
2022/01/16 02:46:35;;;;;;;0.00;0.00;;;1.00;99.90;;;;;;5019244;28;20159;-69
2022/01/16 02:48:44;;;;;;;0.47;0.47;;;0.90;99.90;;;;;;5018964;28;20475;-68
2022/01/16 02:51:10;;;;;;;0.00;0.00;;;0.90;99.90;;;;;;5019649;28;20098;-69
2022/01/16 02:53:35;;;;;;;0.10;0.10;;;0.80;99.90;;;;;;5019708;28;20053;-68
2022/01/16 02:56:01;;;;;;;0.10;0.10;;;0.80;99.90;;;;;;5018204;28;20037;-69
2022/01/16 02:58:27;;;;;;;0.00;0.00;;;0.90;99.90;;;;;;5018169;28;20145;-68
2022/01/16 03:00:53;;;;;;;0.00;0.00;;;0.90;99.90;;;;;;5018863;28;20103;-69
2022/01/16 03:03:18;;;;;;;0.00;0.00;;;0.80;99.90;;;;;;5019481;28;20049;-68
2022/01/16 03:05:44;;;;;;;0.25;0.25;;;0.80;99.90;;;;;;5018166;28;20121;-68
2022/01/16 03:08:10;;;;;;;0.10;0.10;;;0.90;99.90;;;;;;5019587;28;20545;-68
2022/01/16 03:10:59;;;;;;;1.45;1.25;;;0.80;99.90;;;;;;5001400;28;20092;-68
2022/01/16 03:13:27;;;;;;;0.00;0.00;;;0.80;99.90;;;;;;5018158;28;20795;-67
2022/01/16 03:15:54;;;;;;;2.38;0.82;;;0.90;99.90;;;;;;5001404;28;20119;-69
2022/01/16 03:23:29;;;;;;;1.80;1.70;;;0.90;99.90;;;;;;5022305;28;20049;-69
2022/01/16 03:25:56;;;;;;;0.03;0.03;;;0.80;99.90;;;;;;5022096;28;20049;-69
2022/01/16 03:28:22;;;;;;;0.00;0.00;;;0.80;99.90;;;;;;5027340;28;20056;-69
2022/01/16 03:30:49;;;;;;;0.15;0.15;;;0.90;99.90;;;;;;5027246;28;20054;-69
2022/01/16 03:33:15;;;;;;;0.20;0.20;;;0.80;99.90;;;;;;5022449;28;20397;-68
2022/01/16 03:35:42;;;;;;;0.32;0.25;;;0.80;99.90;;;;;;5021105;28;20404;-66
2022/01/16 03:38:07;;;;;;;0.90;0.70;;;0.80;99.90;;;;;;5005158;28;20152;-68
2022/01/16 03:40:33;;;;;;;0.00;0.00;;;0.80;99.90;;;;;;5022159;28;20125;-68
2022/01/16 03:43:09;;;;;;;1.40;1.40;;;1.00;99.90;;;;;;5021250;28;20056;-68
2022/01/16 03:45:34;;;;;;;0.00;0.00;;;0.80;99.90;;;;;;5021717;28;20060;-67
2022/01/16 03:48:00;;;;;;;0.00;0.00;;;0.80;99.90;;;;;;5020847;28;20045;-68
2022/01/16 03:50:26;;;;;;;0.00;0.00;;;0.80;99.90;;;;;;5022061;28;20045;-68
2022/01/16 03:52:52;;;;;;;0.00;0.00;;;0.80;99.90;;;;;;5021288;28;20045;-69
2022/01/16 03:55:18;;;;;;;0.00;0.00;;;0.90;99.90;;;;;;5022351;28;20083;-68
2022/01/16 03:57:44;;;;;;;0.38;0.38;;;0.80;99.90;;;;;;5020914;28;20099;-69
2022/01/16 04:00:10;;;;;;;1.52;0.75;;;0.80;99.90;;;;;;5022375;28;20041;-68
2022/01/16 04:02:36;;;;;;;0.00;0.00;;;0.90;99.90;;;;;;5021549;28;20132;-69
2022/01/16 04:05:02;;;;;;;1.35;0.80;;;0.90;99.90;;;;;;5003770;28;20128;-69
2022/01/16 04:07:33;;;;;;;0.00;0.00;;;0.90;99.90;;;;;;5021433;28;20099;-68
2022/01/16 04:09:59;;;;;;;0.15;0.15;;;0.90;99.90;;;;;;5021757;28;20068;-68
2022/01/16 04:12:24;;;;;;;0.00;0.00;;;0.90;99.90;;;;;;5020389;28;20065;-69
2022/01/16 04:17:19;;;;;;;1.10;1.10;;;2.00;99.90;;;;;;5021260;28;20049;-69
2022/01/16 04:19:46;;;;;;;0.68;0.68;;;1.00;99.90;;;;;;5021133;28;20393;-69
2022/01/16 04:22:12;;;;;;;0.10;0.10;;;1.00;99.90;;;;;;5021354;28;20045;-69
2022/01/16 04:24:38;;;;;;;0.00;0.00;;;1.00;99.90;;;;;;5021615;28;20049;-69
2022/01/16 04:27:04;;;;;;;0.00;0.00;;;2.30;99.90;;;;;;5020979;28;20045;-69
2022/01/16 04:29:30;;;;;;;0.00;0.00;;;1.00;99.90;;;;;;5031256;28;20041;-69
2022/01/16 04:31:56;;;;;;;0.10;0.10;;;1.00;99.90;;;;;;5021127;28;20377;-69
2022/01/16 04:34:21;;;;;;;0.65;0.65;;;1.10;99.90;;;;;;5021048;28;20044;-68
2022/01/16 04:36:47;;;;;;;0.00;0.00;;;1.10;99.90;;;;;;5020933;28;20133;-68
2022/01/16 04:39:16;;;;;;;0.63;0.47;;;1.10;99.90;;;;;;5020565;28;20125;-68
2022/01/16 04:44:27;;;;;;;0.17;0.17;;;1.10;99.90;;;;;;5021165;28;20046;-69
2022/01/16 04:46:54;;;;;;;0.00;0.00;;;1.10;99.90;;;;;;5020440;28;20107;-69
2022/01/16 04:49:20;;;;;;;0.00;0.00;;;1.20;99.90;;;;;;5020794;28;20782;-68
2022/01/16 04:51:47;;;;;;;0.57;0.57;;;1.20;99.90;;;;;;5020966;28;20082;-69
2022/01/16 04:54:13;;;;;;;0.45;0.45;;;1.20;99.90;;;;;;5020429;28;20045;-69
2022/01/16 04:56:38;;;;;;;0.00;0.00;;;1.20;99.90;;;;;;5021247;28;20045;-69
2022/01/16 04:59:04;;;;;;;0.00;0.00;;;1.20;99.90;;;;;;5019884;28;20152;-67
2022/01/16 05:01:30;;;;;;;0.00;0.00;;;1.30;99.90;;;;;;5020788;28;20088;-67
2022/01/16 05:03:55;;;;;;;0.20;0.20;;;1.30;99.90;;;;;;5019811;28;20053;-69
2022/01/16 05:06:21;;;;;;;0.00;0.00;;;2.10;99.90;;;;;;5021025;28;20052;-68
2022/01/16 05:08:48;;;;;;;0.00;0.00;;;1.40;99.90;;;;;;5020799;28;20046;-69
2022/01/16 05:11:18;;;;;;;0.00;0.00;;;1.40;99.90;;;;;;5002773;28;20063;-69
2022/01/16 05:18:54;;;;;;;0.00;0.00;;;1.40;99.90;;;;;;5019998;28;20056;-68
2022/01/16 05:21:21;;;;;;;0.03;0.03;;;1.50;99.90;;;;;;5002365;28;20049;-69
2022/01/16 05:23:47;;;;;;;0.00;0.00;;;1.50;99.90;;;;;;5020105;28;20045;-67
2022/01/16 05:26:17;;;;;;;0.00;0.00;;;1.50;99.90;;;;;;5020434;28;20038;-66
2022/01/16 05:28:43;;;;;;;0.10;0.10;;;1.50;99.90;;;;;;5027400;28;20561;-68
2022/01/16 05:31:09;;;;;;;0.03;0.03;;;1.60;99.90;;;;;;5022907;28;20037;-68
2022/01/16 05:33:35;;;;;;;0.00;0.00;;;2.70;99.90;;;;;;5020629;28;20049;-68
2022/01/16 05:36:00;;;;;;;0.00;0.00;;;1.60;99.90;;;;;;5019563;28;20084;-67
2022/01/16 05:38:27;;;;;;;0.13;0.13;;;1.60;99.90;;;;;;5019204;28;20081;-68
2022/01/16 05:40:53;;;;;;;0.00;0.00;;;1.70;99.90;;;;;;5019163;28;20095;-68
2022/01/16 05:43:18;;;;;;;0.15;0.15;;;1.70;99.90;;;;;;5002092;28;20057;-67
2022/01/16 05:45:44;;;;;;;0.10;0.10;;;1.70;99.90;;;;;;5019513;28;20053;-68
2022/01/16 05:48:10;;;;;;;0.17;0.17;;;1.70;99.90;;;;;;5019613;28;20037;-68
2022/01/16 05:50:36;;;;;;;0.00;0.00;;;1.70;99.90;;;;;;5020418;28;20605;-68
2022/01/16 05:53:02;;;;;;;0.00;0.00;;;1.70;99.90;;;;;;5019910;28;20037;-68
2022/01/16 05:55:33;;;;;;;0.00;0.00;;;1.70;99.90;;;;;;5019618;28;20424;-68
2022/01/16 05:57:59;;;;;;;0.00;0.00;;;1.80;99.90;;;;;;5019034;28;20053;-68
2022/01/16 06:00:25;;;;;;;0.00;0.00;;;1.90;99.90;;;;;;5019998;28;20053;-67
2022/01/16 06:02:51;;;;;;;0.10;0.10;;;1.80;99.90;;;;;;5019675;28;20124;-67
2022/01/16 06:05:16;;;;;;;1.52;1.45;;;1.80;99.90;;;;;;5001370;28;20576;-68
2022/01/16 06:07:45;;;;;;;0.00;0.00;;;1.90;99.90;;;;;;5019521;28;20045;-67
2022/01/16 06:10:11;;;;;;;2.10;0.38;;;1.90;99.90;;;;;;5019814;28;20045;-67
2022/01/16 06:12:37;;;;;;;0.30;0.30;;;1.90;99.90;;;;;;5019119;28;20089;-67
2022/01/16 06:15:05;;;;;;;0.00;0.00;;;2.00;99.90;;;;;;5018673;28;20073;-68
2022/01/16 06:17:31;;;;;;;1.98;0.85;;;2.00;99.90;;;;;;5019766;28;20709;-68
2022/01/16 06:19:57;;;;;;;0.22;0.20;;;2.00;99.90;;;;;;5019448;28;20458;-67
2022/01/16 06:22:22;;;;;;;0.20;0.20;;;2.00;99.90;;;;;;5018881;28;20102;-68
2022/01/16 06:24:48;;;;;;;0.85;0.85;;;1.20;99.90;;;;;;5019230;28;20140;-68
2022/01/16 06:27:14;;;;;;;0.00;0.00;;;2.00;99.90;;;;;;5002714;28;20049;-67
2022/01/16 06:29:40;;;;;;;0.10;0.10;;;2.00;99.90;;;;;;5029988;28;20056;-68
2022/01/16 06:32:05;;;;;;;0.00;0.00;;;3.50;99.90;;;;;;5018721;28;20088;-68
2022/01/16 06:34:31;;;;;;;0.20;0.20;;;2.10;99.90;;;;;;5019523;28;20068;-68
2022/01/16 06:36:58;;;;;;;0.03;0.03;;;2.10;99.90;;;;;;5019236;28;20057;-67
2022/01/16 06:39:24;;;;;;;0.10;0.10;;;2.10;99.90;;;;;;5001949;28;20045;-70
2022/01/16 06:41:50;;;;;;;0.00;0.00;;;2.10;99.90;;;;;;5017412;28;20048;-68
2022/01/16 06:44:16;;;;;;;0.57;0.57;;;2.10;99.90;;;;;;5001670;28;20050;-68
2022/01/16 06:46:41;;;;;;;0.00;0.00;;;2.20;99.90;;;;;;5019160;28;20123;-68
2022/01/16 06:49:10;;;;;;;0.10;0.10;;;2.20;99.90;;;;;;5019952;28;20125;-68
2022/01/16 06:51:36;;;;;;;0.10;0.10;;;2.30;99.90;;;;;;5020748;28;20034;-67
2022/01/16 06:54:03;;;;;;;0.00;0.00;;;2.30;99.90;;;;;;5005052;28;20420;-67
2022/01/16 06:56:30;;;;;;;0.00;0.00;;;2.50;99.90;;;;;;5023464;28;20708;-68
2022/01/16 06:58:56;;;;;;;0.00;0.00;;;2.30;99.90;;;;;;5021939;28;20432;-68
2022/01/16 07:01:22;;;;;;;0.10;0.10;;;2.80;99.90;;;;;;5022877;28;20237;-67
2022/01/16 07:03:49;;;;;;;0.45;0.45;;;2.30;99.90;;;;;;5022813;28;20421;-68
2022/01/16 07:06:15;;;;;;;0.00;0.00;;;2.40;99.90;;;;;;5022913;28;20045;-68
2022/01/16 07:08:41;;;;;;;0.15;0.15;;;2.40;99.90;;;;;;5003977;28;20052;-68
2022/01/16 07:11:07;;;;;;;0.00;0.00;;;2.40;99.90;;;;;;5022992;28;20045;-68
2022/01/16 07:13:33;;;;;;;0.10;0.10;;;2.40;99.90;;;;;;5022590;28;20437;-68
2022/01/16 07:15:59;;;;;;;0.00;0.00;;;2.40;99.90;;;;;;5022600;28;20088;-68
2022/01/16 07:18:25;;;;;;;0.00;0.00;;;2.40;99.90;;;;;;5003904;28;20111;-68
2022/01/16 07:20:51;;;;;;;0.00;0.00;;;2.50;99.90;;;;;;5022659;28;20120;-68
2022/01/16 07:23:17;;;;;;;0.00;0.00;;;2.40;99.90;;;;;;5022489;28;20590;-68
2022/01/16 07:25:44;;;;;;;0.00;0.00;;;3.10;99.90;;;;;;5022830;28;20128;-68
2022/01/16 07:28:09;;;;;;;0.00;0.00;;;2.60;99.90;;;;;;5025558;28;20041;-68
2022/01/16 07:30:36;;;;;;;0.00;0.00;;;2.50;99.90;;;;;;5029326;28;20046;-68
2022/01/16 07:33:03;;;;;;;1.85;1.75;;;2.50;99.90;;;;;;5004657;28;20056;-68
2022/01/16 07:35:29;;;;;;;0.15;0.15;;;2.60;99.90;;;;;;5022459;28;20061;-68
2022/01/16 07:37:55;;;;;;;0.00;0.00;;;2.60;99.90;;;;;;5021469;28;20128;-68
2022/01/16 07:40:21;;;;;;;0.00;0.00;;;2.60;99.90;;;;;;5022484;28;20183;-69
2022/01/16 07:42:47;;;;;;;0.00;0.00;;;2.70;99.90;;;;;;5003837;28;20056;-69
2022/01/16 07:45:13;;;;;;;0.00;0.00;;;2.70;99.90;;;;;;5021588;28;20525;-68
2022/01/16 07:47:39;;;;;;;0.05;0.05;;;2.80;99.90;;;;;;5022113;28;20049;-68
2022/01/16 07:50:09;;;;;;;0.00;0.00;;;2.80;99.90;;;;;;5021865;28;20101;-68
2022/01/16 07:52:35;;;;;;;1.35;0.25;;;2.80;99.90;;;;;;5022091;28;20085;-68
2022/01/16 07:55:01;;;;;;;0.55;0.55;;;2.80;99.90;;;;;;5021105;28;20081;-69
2022/01/16 07:57:26;;;;;;;0.52;0.52;;;2.80;99.90;;;;;;5021070;28;20124;-69
2022/01/16 07:59:52;;;;;;;1.90;1.30;;;2.90;99.90;;;;;;5021612;28;20046;-68
2022/01/16 08:02:18;;;;;;;13.25;1.90;;;3.00;99.90;;;;;;5003583;28;20045;-69
2022/01/16 08:04:44;;;;;;;0.00;0.00;;;3.00;99.90;;;;;;5020842;28;20046;-68
2022/01/16 08:07:10;;;;;;;0.08;0.08;;;3.00;99.90;;;;;;5021862;28;20553;-68
2022/01/16 08:09:37;;;;;;;0.93;0.90;;;3.00;99.90;;;;;;5022091;28;20045;-68
2022/01/16 08:12:04;;;;;;;0.10;0.10;;;3.00;99.90;;;;;;5020832;28;20423;-68
2022/01/16 08:14:30;;;;;;;0.43;0.43;;;3.10;99.90;;;;;;5021201;28;20049;-68
2022/01/16 08:16:56;;;;;;;0.00;0.00;;;3.10;99.90;;;;;;5020782;28;20507;-68
2022/01/16 08:19:23;;;;;;;0.63;0.63;;;3.10;99.90;;;;;;5021459;28;20057;-68
2022/01/16 08:21:49;;;;;;;0.13;0.13;;;3.20;99.90;;;;;;5020556;28;20085;-68
2022/01/16 08:24:14;;;;;;;0.63;0.63;;;3.10;99.90;;;;;;5003646;28;20073;-68
2022/01/16 08:26:40;;;;;;;14.95;4.03;;;3.20;99.90;;;;;;5021355;28;20934;-68
2022/01/16 08:29:06;;;;;;;4.15;2.65;;;3.30;99.90;;;;;;5032781;28;20040;-68
2022/01/16 08:31:32;;;;;;;0.17;0.17;;;3.30;99.90;;;;;;5020733;28;20183;-69
2022/01/16 08:33:57;;;;;;;0.00;0.00;;;3.40;99.90;;;;;;5020692;28;20087;-68
2022/01/16 08:36:24;;;;;;;2.05;1.85;;;3.30;99.90;;;;;;5021205;28;20843;-68
2022/01/16 08:38:49;;;;;;;0.00;0.00;;;3.40;99.90;;;;;;5021295;28;20061;-68
2022/01/16 08:41:15;;;;;;;0.20;0.20;;;3.40;99.90;;;;;;5020745;28;20083;-68
2022/01/16 08:43:41;;;;;;;0.00;0.00;;;3.50;99.90;;;;;;5020092;28;20445;-69
2022/01/16 08:46:07;;;;;;;0.32;0.32;;;3.50;99.90;;;;;;5021205;28;20049;-68
2022/01/16 08:48:33;;;;;;;0.20;0.20;;;3.60;99.90;;;;;;5021123;28;20064;-68
2022/01/16 08:50:58;;;;;;;0.00;0.00;;;3.60;99.90;;;;;;5020087;28;20511;-68
2022/01/16 08:53:24;;;;;;;0.00;0.00;;;3.70;99.90;;;;;;5019835;28;20168;-67
2022/01/16 08:55:50;;;;;;;0.00;0.00;;;3.60;99.90;;;;;;5020549;28;20046;-68
2022/01/16 08:58:16;;;;;;;1.40;0.50;;;3.70;99.90;;;;;;5019971;28;20125;-68
2022/01/16 09:00:43;;;;;;;0.10;0.10;;;4.20;99.90;;;;;;5019942;28;20063;-68
2022/01/16 09:03:09;;;;;;;0.35;0.35;;;3.80;99.90;;;;;;5021106;28;20053;-67
2022/01/16 09:05:35;;;;;;;0.30;0.30;;;3.90;99.90;;;;;;5020461;28;20052;-67
2022/01/16 09:08:01;;;;;;;0.22;0.22;;;5.60;99.90;;;;;;5019746;28;20033;-68
2022/01/16 09:10:27;;;;;;;0.10;0.10;;;3.90;99.90;;;;;;4986721;28;20441;-69
2022/01/16 09:12:53;;;;;;;0.22;0.22;;;3.90;99.90;;;;;;5019500;28;20053;-68
2022/01/16 09:15:20;;;;;;;1.02;0.93;;;4.60;99.90;;;;;;5020695;28;20041;-68
2022/01/16 09:17:46;;;;;;;0.10;0.10;;;4.00;99.90;;;;;;5019393;28;20041;-67
2022/01/16 09:20:13;;;;;;;0.10;0.10;;;4.00;99.90;;;;;;5020318;28;20180;-68
2022/01/16 09:22:41;;;;;;;6.32;1.35;;;4.10;99.90;;;;;;5020697;28;20045;-67
2022/01/16 09:25:07;;;;;;;0.73;0.73;;;4.10;99.90;;;;;;5020676;28;20049;-69
2022/01/16 09:27:33;;;;;;;0.38;0.38;;;3.90;99.90;;;;;;5021576;28;20503;-68
2022/01/16 09:29:59;;;;;;;9.13;1.45;;;4.50;99.90;;;;;;5028739;28;20077;-69
2022/01/16 09:32:26;;;;;;;0.40;0.40;;;4.30;99.90;;;;;;5020177;28;20049;-68
2022/01/16 09:34:51;;;;;;;0.15;0.15;;;4.40;99.90;;;;;;5019935;28;20038;-69
2022/01/16 09:37:17;;;;;;;1.00;0.45;;;4.40;99.90;;;;;;5001716;28;20500;-70
2022/01/16 09:39:43;;;;;;;0.10;0.10;;;4.50;99.90;;;;;;5019916;28;20095;-68
2022/01/16 09:42:09;;;;;;;1.20;1.17;;;4.50;99.90;;;;;;5019926;28;20689;-69
2022/01/16 09:44:39;;;;;;;0.00;0.00;;;4.60;99.90;;;;;;5019531;28;20045;-70
2022/01/16 09:47:06;;;;;;;0.00;0.00;;;4.60;99.90;;;;;;5020064;28;20063;-69
2022/01/16 09:49:32;;;;;;;0.10;0.10;;;4.70;99.90;;;;;;5019520;28;20053;-69
2022/01/16 09:51:57;;;;;;;0.00;0.00;;;4.70;99.90;;;;;;5019531;28;20060;-69
2022/01/16 09:54:23;;;;;;;0.00;0.00;;;4.80;99.90;;;;;;5029704;28;20474;-70
2022/01/16 09:56:50;;;;;;;0.20;0.20;;;4.80;99.90;;;;;;5038705;28;20036;-70
2022/01/16 09:59:17;;;;;;;0.03;0.03;;;4.90;99.90;;;;;;5039031;28;20067;-69
2022/01/16 10:01:42;;;;;;;0.00;0.00;;;5.00;99.90;;;;;;5038709;28;20075;-69
2022/01/16 10:04:31;;;;;;;1.33;1.08;;;5.00;99.90;;;;;;5038778;28;20037;-69
2022/01/16 10:07:03;;;;;;;0.00;0.00;;;5.10;99.90;;;;;;5038003;28;20049;-68
2022/01/16 10:09:28;;;;;;;0.20;0.20;;;5.20;99.90;;;;;;5038361;28;20048;-69
2022/01/16 10:12:00;;;;;;;0.10;0.10;;;5.20;99.90;;;;;;5038020;28;20049;-69
2022/01/16 10:14:30;;;;;;;0.08;0.08;;;5.30;99.90;;;;;;5037053;28;20044;-70
2022/01/16 10:16:56;;;;;;;0.10;0.10;;;5.30;99.90;;;;;;5038017;28;20045;-69
2022/01/16 10:19:29;;;;;;;0.00;0.00;;;5.70;99.90;;;;;;5038830;28;20033;-69
2022/01/16 10:22:02;;;;;;;0.00;0.00;;;5.40;99.90;;;;;;5039253;28;20052;-69
2022/01/16 10:24:32;;;;;;;0.10;0.10;;;5.40;99.90;;;;;;5038338;28;20195;-70
2022/01/16 10:27:11;;;;;;;0.10;0.10;;;5.40;99.90;;;;;;5040521;28;20438;-69
2022/01/16 10:29:39;;;;;;;0.00;0.00;;;5.50;99.90;;;;;;5034494;28;20088;-69
2022/01/16 10:32:26;;;;;;;0.38;0.15;;;5.40;99.90;;;;;;5022371;28;20107;-69
2022/01/16 10:35:06;;;;;;;2.40;2.17;;;5.40;99.90;;;;;;5023172;28;20500;-69
2022/01/16 10:37:32;;;;;;;0.55;0.55;;;5.40;99.90;;;;;;5022696;28;20049;-70
2022/01/16 10:40:09;;;;;;;0.00;0.00;;;5.30;99.90;;;;;;5023508;28;20053;-71
2022/01/16 10:42:36;;;;;;;0.00;0.00;;;5.30;99.90;;;;;;5022947;28;20052;-70
2022/01/16 10:45:07;;;;;;;0.00;0.00;;;5.40;99.90;;;;;;5004889;28;20044;-69
2022/01/16 10:47:35;;;;;;;0.00;0.00;;;5.40;99.90;;;;;;5022908;28;20042;-69
2022/01/16 10:50:16;;;;;;;0.00;0.00;;;5.40;99.90;;;;;;5023384;28;20412;-69
2022/01/16 10:53:01;;;;;;;0.00;0.00;;;5.40;99.90;;;;;;5023238;28;20511;-69
2022/01/16 10:55:38;;;;;;;1.37;0.93;;;5.40;99.90;;;;;;5023493;28;20088;-70
2022/01/16 10:58:08;;;;;;;0.38;0.15;;;5.40;99.90;;;;;;5022052;28;20049;-69
2022/01/16 11:00:35;;;;;;;0.05;0.05;;;5.50;99.90;;;;;;5023071;28;20049;-70
2022/01/16 11:03:04;;;;;;;0.00;0.00;;;5.50;99.90;;;;;;5022742;28;20135;-68
2022/01/16 11:05:41;;;;;;;0.00;0.00;;;5.40;99.90;;;;;;5022325;28;20129;-69
2022/01/16 11:08:12;;;;;;;0.05;0.05;;;5.50;99.90;;;;;;5038402;28;20052;-70
2022/01/16 11:10:46;;;;;;;0.00;0.00;;;5.60;99.90;;;;;;5042749;28;20404;-71
2022/01/16 11:13:19;;;;;;;0.00;0.00;;;5.60;99.90;;;;;;5041169;28;20510;-71
2022/01/16 11:15:56;;;;;;;0.03;0.03;;;5.60;99.90;;;;;;5040023;28;20766;-70
2022/01/16 11:18:24;;;;;;;0.00;0.00;;;5.70;99.90;;;;;;5036925;28;20120;-70
2022/01/16 11:20:56;;;;;;;0.00;0.00;;;5.70;99.90;;;;;;5041735;28;20041;-72
2022/01/16 11:26:12;;;;;;;0.45;0.22;;;5.80;99.90;;;;;;5040956;28;20633;-71
2022/01/16 11:28:38;;;;;;;1.45;0.43;;;5.80;99.90;;;;;;5036480;28;20053;-71
2022/01/16 11:31:10;;;;;;;0.00;0.00;;;6.50;99.90;;;;;;5039717;28;20123;-71
2022/01/16 11:33:37;;;;;;;0.00;0.00;;;6.00;99.90;;;;;;5042757;28;20707;-70
2022/01/16 11:36:14;;;;;;;0.00;0.00;;;5.90;99.90;;;;;;5042262;28;20124;-71
2022/01/16 11:38:42;;;;;;;0.20;0.20;;;5.90;99.90;;;;;;5040813;28;20503;-70
2022/01/16 11:41:13;;;;;;;0.00;0.00;;;5.80;99.90;;;;;;5041696;28;20045;-70
2022/01/16 11:43:40;;;;;;;0.00;0.00;;;5.90;99.90;;;;;;5042362;28;20135;-71
2022/01/16 11:46:06;;;;;;;0.10;0.10;;;5.90;99.90;;;;;;5042767;28;20164;-71
2022/01/16 11:48:41;;;;;;;0.10;0.10;;;6.00;99.90;;;;;;5041339;28;20163;-70
2022/01/16 11:51:36;;;;;;;0.00;0.00;;;6.00;99.90;;;;;;5042467;28;20045;-70
2022/01/16 11:54:02;;;;;;;0.00;0.00;;;6.00;99.90;;;;;;5034617;28;20099;-69
2022/01/16 11:56:53;;;;;;;0.10;0.10;;;6.00;99.90;;;;;;5039113;28;20053;-70
2022/01/16 11:59:22;;;;;;;2.60;2.15;;;6.10;99.90;;;;;;5019437;28;20053;-70
2022/01/16 12:01:53;;;;;;;0.00;0.00;;;6.80;99.90;;;;;;5023285;28;20049;-70
2022/01/16 12:04:31;;;;;;;0.00;0.00;;;6.10;99.90;;;;;;5041253;28;20190;-66
2022/01/16 12:07:12;;;;;;;0.00;0.00;;;6.20;99.90;;;;;;5040790;28;20151;-64
2022/01/16 12:12:23;;;;;;;1.20;0.73;;;6.60;99.90;;;;;;5039797;28;20072;-70
2022/01/16 12:14:56;;;;;;;0.00;0.00;;;6.10;99.90;;;;;;5040947;28;20163;-70
2022/01/16 12:17:29;;;;;;;0.43;0.40;;;6.10;99.90;;;;;;5041233;28;20056;-71
2022/01/16 12:19:56;;;;;;;0.00;0.00;;;6.10;99.90;;;;;;5040859;28;20060;-69
2022/01/16 12:22:55;;;;;;;0.20;0.20;;;6.10;99.90;;;;;;5040878;28;20041;-70
2022/01/16 12:25:36;;;;;;;0.00;0.00;;;6.10;99.90;;;;;;5022507;28;20211;-70
2022/01/16 12:28:17;;;;;;;0.00;0.00;;;6.10;99.90;;;;;;5033971;28;20038;-71
2022/01/16 12:31:02;;;;;;;0.00;0.00;;;6.10;99.90;;;;;;5019562;28;20124;-71
2022/01/16 12:33:28;;;;;;;0.00;0.00;;;7.00;99.90;;;;;;5021506;28;20053;-70
2022/01/16 12:35:58;;;;;;;0.00;0.00;;;6.20;99.90;;;;;;5019842;28;20054;-70
2022/01/16 12:38:26;;;;;;;0.00;0.00;;;6.20;99.90;;;;;;5021011;28;20049;-71
2022/01/16 12:40:58;;;;;;;0.00;0.00;;;6.20;99.90;;;;;;5028871;28;20040;-70
2022/01/16 12:43:30;;;;;;;0.00;0.00;;;6.30;99.90;;;;;;5043968;28;20119;-71
2022/01/16 12:46:00;;;;;;;0.00;0.00;;;6.10;99.90;;;;;;5040091;28;20056;-71
2022/01/16 12:48:27;;;;;;;0.25;0.25;;;5.80;99.90;;;;;;5019129;28;20037;-71
2022/01/16 12:51:00;;;;;;;0.00;0.00;;;6.10;99.90;;;;;;5039916;28;20045;-70
2022/01/16 12:53:54;;;;;;;0.00;0.00;;;6.10;99.90;;;;;;5038095;28;20045;-70
2022/01/16 12:56:20;;;;;;;0.00;0.00;;;6.10;99.90;;;;;;5035622;28;20090;-67
2022/01/16 12:58:47;;;;;;;1.85;1.27;;;6.50;99.90;;;;;;5039182;28;20154;-66
2022/01/16 13:01:12;;;;;;;0.10;0.10;;;6.20;99.90;;;;;;5040144;28;20656;-65
2022/01/16 13:03:38;;;;;;;0.00;0.00;;;6.20;99.90;;;;;;5022692;28;20048;-70
2022/01/16 13:06:19;;;;;;;0.10;0.10;;;6.20;99.90;;;;;;5039263;28;20124;-71
2022/01/16 13:09:09;;;;;;;0.00;0.00;;;6.20;99.90;;;;;;5039848;28;20054;-69
2022/01/16 13:11:42;;;;;;;0.00;0.00;;;6.20;99.90;;;;;;5026303;28;20071;-70
2022/01/16 13:14:13;;;;;;;0.00;0.00;;;6.20;99.90;;;;;;5040199;28;20045;-70
2022/01/16 13:16:50;;;;;;;0.08;0.08;;;6.20;99.90;;;;;;5040486;28;20045;-70
2022/01/16 13:19:25;;;;;;;0.00;0.00;;;6.20;99.90;;;;;;5021927;28;20049;-71
2022/01/16 13:22:13;;;;;;;0.10;0.10;;;6.20;99.90;;;;;;5039570;28;20155;-71
2022/01/16 13:24:44;;;;;;;0.00;0.00;;;6.20;99.90;;;;;;5039859;28;20072;-71
2022/01/16 13:27:23;;;;;;;0.00;0.00;;;6.20;99.90;;;;;;5019969;28;20952;-71
2022/01/16 13:29:55;;;;;;;0.00;0.00;;;6.20;99.90;;;;;;5025647;28;20059;-71
2022/01/16 13:32:25;;;;;;;0.00;0.00;;;6.20;99.90;;;;;;5040021;28;20132;-71
2022/01/16 13:34:56;;;;;;;0.00;0.00;;;6.20;99.90;;;;;;5039472;28;20098;-70
2022/01/16 13:37:33;;;;;;;0.00;0.00;;;6.20;99.90;;;;;;5020839;28;20049;-71
2022/01/16 13:40:11;;;;;;;0.00;0.00;;;6.20;99.90;;;;;;5039667;28;20489;-71
2022/01/16 13:45:32;;;;;;;0.00;0.00;;;6.20;99.90;;;;;;5039333;28;20135;-70
2022/01/16 13:48:23;;;;;;;0.00;0.00;;;6.20;99.90;;;;;;5039595;28;20049;-70
2022/01/16 13:50:54;;;;;;;0.00;0.00;;;6.20;99.90;;;;;;5019129;28;20053;-65
2022/01/16 13:53:32;;;;;;;0.00;0.00;;;6.20;99.90;;;;;;5019824;28;20084;-71
2022/01/16 13:56:13;;;;;;;0.00;0.00;;;6.20;99.90;;;;;;5001219;28;20057;-71
2022/01/16 13:58:49;;;;;;;0.10;0.10;;;6.20;99.90;;;;;;5038276;28;20056;-71